Time;durP1;ratioP1;P1;durP2;ratioP2;P2;SDS_P1;SDS_P2;PMS_P1;PMS_P2;Temp;Humidity;BMP_temperature;BMP_pressure;BME280_temperature;BME280_humidity;BME280_pressure;Samples;Min_cycle;Max_cycle;Signal;HPM_P1;HPM_P2
2024/01/20 00:01:25;;;;;;;14.90;9.90;;;4.80;55.80;;;;;;5044403;28;20248;-60
2024/01/20 00:03:50;;;;;;;17.43;9.57;;;4.90;55.50;;;;;;5050871;28;20419;-59
2024/01/20 00:06:16;;;;;;;16.47;9.80;;;4.90;55.50;;;;;;5050650;28;20612;-60
2024/01/20 00:08:41;;;;;;;18.10;10.77;;;5.00;55.60;;;;;;5048292;28;20237;-60
2024/01/20 00:11:07;;;;;;;15.73;11.17;;;5.10;55.60;;;;;;5046408;28;20197;-59
2024/01/20 00:13:32;;;;;;;16.87;11.00;;;5.20;55.40;;;;;;5048578;28;20247;-60
2024/01/20 00:15:58;;;;;;;24.10;11.80;;;5.20;55.00;;;;;;5044256;28;20212;-58
2024/01/20 00:18:23;;;;;;;21.00;11.63;;;5.30;54.70;;;;;;5044623;28;20181;-60
2024/01/20 00:20:50;;;;;;;19.43;11.40;;;5.20;54.50;;;;;;5043848;28;20751;-58
2024/01/20 00:23:15;;;;;;;17.70;11.27;;;5.10;54.80;;;;;;5043094;28;20177;-58
2024/01/20 00:25:41;;;;;;;17.10;10.70;;;4.90;55.00;;;;;;5040930;28;20474;-59
2024/01/20 00:28:07;;;;;;;16.47;11.00;;;4.80;55.20;;;;;;5042193;28;22081;-60
2024/01/20 00:30:33;;;;;;;20.50;12.20;;;4.90;55.40;;;;;;5042711;28;20188;-60
2024/01/20 00:32:59;;;;;;;16.13;10.20;;;4.70;55.40;;;;;;5042351;28;20447;-59
2024/01/20 00:35:24;;;;;;;15.63;11.20;;;4.40;56.30;;;;;;5044688;28;20192;-59
2024/01/20 00:37:50;;;;;;;15.07;10.33;;;4.60;56.60;;;;;;5045706;28;20195;-60
2024/01/20 00:40:15;;;;;;;15.30;10.70;;;4.60;56.20;;;;;;5041229;28;20184;-60
2024/01/20 00:42:41;;;;;;;15.23;10.70;;;4.80;55.80;;;;;;5041502;28;20600;-59
2024/01/20 00:45:07;;;;;;;15.43;11.30;;;5.00;55.40;;;;;;5044498;28;20237;-59
2024/01/20 00:47:34;;;;;;;14.87;10.70;;;4.90;54.90;;;;;;5040901;28;20271;-60
2024/01/20 00:49:59;;;;;;;15.83;11.27;;;4.40;56.10;;;;;;5047812;28;20430;-59
2024/01/20 00:52:25;;;;;;;17.63;10.97;;;4.50;56.70;;;;;;5042436;28;20906;-61
2024/01/20 00:54:51;;;;;;;18.90;11.83;;;4.60;56.50;;;;;;5050668;28;20200;-59
2024/01/20 00:57:17;;;;;;;18.27;10.83;;;4.80;56.20;;;;;;5043428;28;20198;-60
2024/01/20 00:59:45;;;;;;;16.10;11.20;;;4.90;55.80;;;;;;5050884;28;20428;-60
2024/01/20 01:02:11;;;;;;;15.97;11.43;;;5.00;55.60;;;;;;5043022;28;20221;-59
2024/01/20 01:04:36;;;;;;;17.43;11.03;;;5.00;55.10;;;;;;5049283;28;20447;-59
2024/01/20 01:07:02;;;;;;;14.13;9.47;;;4.60;55.50;;;;;;5043198;28;20513;-60
2024/01/20 01:09:28;;;;;;;17.30;11.27;;;4.60;56.10;;;;;;5042988;28;20180;-60
2024/01/20 01:11:54;;;;;;;16.27;10.97;;;4.60;55.80;;;;;;5039933;28;20511;-59
2024/01/20 01:14:19;;;;;;;18.73;12.10;;;4.70;55.90;;;;;;5046628;28;20184;-60
2024/01/20 01:16:46;;;;;;;18.07;11.50;;;4.50;55.80;;;;;;5045821;28;20201;-59
2024/01/20 01:19:11;;;;;;;13.80;10.13;;;4.60;56.30;;;;;;5048853;28;20207;-60
2024/01/20 01:21:37;;;;;;;13.63;10.17;;;4.70;56.10;;;;;;5045326;28;20475;-60
2024/01/20 01:24:03;;;;;;;17.93;11.00;;;4.90;55.90;;;;;;5042605;28;20196;-60
2024/01/20 01:26:29;;;;;;;16.77;10.90;;;5.00;55.80;;;;;;5037882;28;20205;-60
2024/01/20 01:28:54;;;;;;;19.07;10.23;;;5.10;55.70;;;;;;5040743;28;20181;-61
2024/01/20 01:31:20;;;;;;;15.27;9.50;;;5.10;55.30;;;;;;5039371;28;20189;-59
2024/01/20 01:33:45;;;;;;;17.67;11.37;;;4.80;55.00;;;;;;5041386;28;20192;-59
2024/01/20 01:36:11;;;;;;;14.20;9.63;;;4.70;55.80;;;;;;5037084;28;20272;-59
2024/01/20 01:38:37;;;;;;;16.23;10.70;;;4.70;55.80;;;;;;5043394;28;20272;-60
2024/01/20 01:41:02;;;;;;;15.50;11.30;;;4.70;56.00;;;;;;5040346;28;20247;-60
2024/01/20 01:43:28;;;;;;;14.00;10.23;;;4.90;55.90;;;;;;5042021;28;20180;-58
2024/01/20 01:45:53;;;;;;;21.10;12.10;;;4.90;55.60;;;;;;5036989;28;20242;-59
2024/01/20 01:48:19;;;;;;;20.10;12.10;;;5.10;55.50;;;;;;5043272;28;20187;-60
2024/01/20 01:50:45;;;;;;;18.90;11.40;;;5.10;55.20;;;;;;5040634;28;20188;-60
2024/01/20 01:53:12;;;;;;;16.03;11.50;;;5.20;55.00;;;;;;5043552;28;20898;-59
2024/01/20 01:55:38;;;;;;;15.90;12.00;;;5.20;55.00;;;;;;5035906;28;21027;-60
2024/01/20 01:58:05;;;;;;;19.93;12.13;;;5.30;55.00;;;;;;5039666;28;20439;-58
2024/01/20 02:00:31;;;;;;;18.90;12.73;;;5.30;54.90;;;;;;5039213;28;20935;-60
2024/01/20 02:02:57;;;;;;;17.93;11.90;;;5.30;54.70;;;;;;5042579;28;20439;-59
2024/01/20 02:05:22;;;;;;;19.17;12.70;;;5.20;54.90;;;;;;5037621;28;20211;-60
2024/01/20 02:07:49;;;;;;;17.77;12.23;;;5.20;54.90;;;;;;5039238;28;20450;-60
2024/01/20 02:10:17;;;;;;;19.37;12.93;;;4.90;55.20;;;;;;5040964;28;20218;-61
2024/01/20 02:12:43;;;;;;;17.53;12.27;;;4.60;55.90;;;;;;5036473;28;20454;-59
2024/01/20 02:15:09;;;;;;;17.30;11.53;;;4.50;56.60;;;;;;5040884;28;20455;-59
2024/01/20 02:17:35;;;;;;;16.43;11.10;;;4.40;56.90;;;;;;5037610;28;20454;-57
2024/01/20 02:20:01;;;;;;;17.90;12.83;;;4.20;56.90;;;;;;5033869;28;20433;-60
2024/01/20 02:22:27;;;;;;;19.33;11.70;;;4.00;57.40;;;;;;5042258;28;20211;-61
2024/01/20 02:24:53;;;;;;;20.67;13.50;;;3.50;58.10;;;;;;5041224;28;20447;-60
2024/01/20 02:27:19;;;;;;;22.67;13.30;;;3.50;59.30;;;;;;5036757;28;20246;-60
2024/01/20 02:29:45;;;;;;;20.17;13.87;;;3.20;59.80;;;;;;5044558;28;20185;-59
2024/01/20 02:32:11;;;;;;;18.77;12.93;;;3.20;60.00;;;;;;5039895;28;20524;-60
2024/01/20 02:34:39;;;;;;;19.10;13.63;;;3.00;60.80;;;;;;5039721;28;20934;-59
2024/01/20 02:37:07;;;;;;;21.60;12.83;;;3.10;61.10;;;;;;5038341;28;20203;-59
2024/01/20 02:39:32;;;;;;;20.73;13.60;;;3.30;60.50;;;;;;5039959;28;20485;-59
2024/01/20 02:41:58;;;;;;;22.50;13.30;;;3.30;60.30;;;;;;5041351;28;20478;-60
2024/01/20 02:44:24;;;;;;;20.30;13.73;;;3.50;59.60;;;;;;5041550;28;20193;-59
2024/01/20 02:46:52;;;;;;;21.10;14.03;;;3.30;59.50;;;;;;5042079;28;20262;-59
2024/01/20 02:49:17;;;;;;;21.33;13.47;;;2.90;60.10;;;;;;5045136;28;20188;-60
2024/01/20 02:51:43;;;;;;;17.53;12.33;;;3.00;61.20;;;;;;5046977;28;20581;-59
2024/01/20 02:54:08;;;;;;;20.30;13.17;;;3.30;60.70;;;;;;5043533;28;20193;-59
2024/01/20 02:56:34;;;;;;;22.87;15.77;;;3.10;60.20;;;;;;5043423;28;20287;-59
2024/01/20 02:59:00;;;;;;;18.97;14.00;;;3.10;60.60;;;;;;5043788;28;20263;-60
2024/01/20 03:01:25;;;;;;;19.53;12.67;;;3.10;60.50;;;;;;5045818;28;20777;-60
2024/01/20 03:03:51;;;;;;;19.50;13.10;;;3.30;60.50;;;;;;5041500;28;20181;-60
2024/01/20 03:06:16;;;;;;;20.50;13.87;;;3.40;60.00;;;;;;5044968;28;20702;-59
2024/01/20 03:08:42;;;;;;;21.43;13.73;;;3.60;59.60;;;;;;5042972;28;20679;-60
2024/01/20 03:11:07;;;;;;;23.87;14.20;;;3.50;59.40;;;;;;5043106;28;20282;-59
2024/01/20 03:13:33;;;;;;;21.80;14.20;;;3.90;59.50;;;;;;5045380;28;20235;-58
2024/01/20 03:15:58;;;;;;;20.30;14.63;;;4.10;59.00;;;;;;5041466;28;20738;-59
2024/01/20 03:18:24;;;;;;;21.37;13.90;;;4.40;58.40;;;;;;5044818;28;20197;-60
2024/01/20 03:20:49;;;;;;;17.13;12.13;;;4.50;57.90;;;;;;5041618;28;20354;-59
2024/01/20 03:23:15;;;;;;;23.63;13.73;;;4.60;57.40;;;;;;5046618;28;20185;-59
2024/01/20 03:25:41;;;;;;;18.00;13.20;;;4.60;57.00;;;;;;5039562;28;20204;-59
2024/01/20 03:28:06;;;;;;;18.80;13.13;;;4.70;57.20;;;;;;5040455;28;20825;-60
2024/01/20 03:30:32;;;;;;;23.40;14.20;;;4.80;57.30;;;;;;5050053;28;20176;-58
2024/01/20 03:32:57;;;;;;;17.70;13.23;;;4.90;56.50;;;;;;5051198;28;20185;-60
2024/01/20 03:35:23;;;;;;;19.50;13.17;;;4.90;56.00;;;;;;5049783;28;20196;-61
2024/01/20 03:37:49;;;;;;;16.70;12.53;;;4.80;55.80;;;;;;5046816;28;20188;-58
2024/01/20 03:40:14;;;;;;;22.70;13.60;;;4.90;55.80;;;;;;5042742;28;20181;-61
2024/01/20 03:42:40;;;;;;;17.80;13.13;;;4.90;55.60;;;;;;5047656;28;20191;-61
2024/01/20 03:45:06;;;;;;;19.30;13.13;;;4.90;55.40;;;;;;5048009;28;20193;-60
2024/01/20 03:47:31;;;;;;;19.73;13.67;;;5.00;55.30;;;;;;5044164;28;20209;-60
2024/01/20 03:49:57;;;;;;;21.53;14.17;;;5.00;55.30;;;;;;5041965;28;20504;-58
2024/01/20 03:52:23;;;;;;;18.67;13.57;;;5.00;55.10;;;;;;5047442;28;20279;-60
2024/01/20 03:54:48;;;;;;;17.57;13.67;;;5.00;55.20;;;;;;5046043;28;20200;-60
2024/01/20 03:57:14;;;;;;;20.60;12.80;;;4.90;55.20;;;;;;5047964;28;20216;-59
2024/01/20 03:59:39;;;;;;;18.47;12.43;;;4.80;55.20;;;;;;5042708;28;20238;-60
2024/01/20 04:02:05;;;;;;;19.53;13.70;;;4.60;55.30;;;;;;5042400;28;20223;-59
2024/01/20 04:04:31;;;;;;;18.73;12.50;;;4.60;55.60;;;;;;5043699;28;20266;-60
2024/01/20 04:06:57;;;;;;;17.90;13.60;;;4.50;55.50;;;;;;5040656;28;20727;-59
2024/01/20 04:09:22;;;;;;;20.27;13.30;;;4.50;55.60;;;;;;5049272;28;20531;-59
2024/01/20 04:11:48;;;;;;;20.27;13.60;;;4.60;55.60;;;;;;5039970;28;20203;-60
2024/01/20 04:14:14;;;;;;;20.07;14.33;;;4.70;55.60;;;;;;5042759;28;20676;-59
2024/01/20 04:16:39;;;;;;;20.30;13.67;;;4.80;55.40;;;;;;5041752;28;20237;-59
2024/01/20 04:19:05;;;;;;;20.33;13.20;;;4.80;55.30;;;;;;5043522;28;20611;-59
2024/01/20 04:21:30;;;;;;;22.03;14.87;;;4.80;55.10;;;;;;5042230;28;20221;-59
2024/01/20 04:23:56;;;;;;;22.10;14.70;;;4.80;55.30;;;;;;5047569;28;20209;-61
2024/01/20 04:26:21;;;;;;;21.10;14.67;;;4.80;55.30;;;;;;5040286;28;20733;-58
2024/01/20 04:28:47;;;;;;;17.53;12.30;;;4.80;55.10;;;;;;5047663;28;20547;-59
2024/01/20 04:31:12;;;;;;;19.03;12.87;;;4.80;54.90;;;;;;5046221;28;20272;-61
2024/01/20 04:33:39;;;;;;;21.60;15.07;;;4.70;54.90;;;;;;5039804;28;20193;-59
2024/01/20 04:36:05;;;;;;;21.83;14.77;;;4.50;55.10;;;;;;5045040;28;20212;-60
2024/01/20 04:38:31;;;;;;;21.23;13.43;;;4.60;55.30;;;;;;5048702;28;20445;-60
2024/01/20 04:40:56;;;;;;;17.67;12.60;;;4.70;55.10;;;;;;5041350;28;20479;-59
2024/01/20 04:43:22;;;;;;;23.20;15.37;;;4.70;55.00;;;;;;5045027;28;20451;-60
2024/01/20 04:45:48;;;;;;;18.77;13.17;;;4.70;55.10;;;;;;5039866;28;20740;-59
2024/01/20 04:48:13;;;;;;;19.03;13.70;;;4.70;54.90;;;;;;5044822;28;20188;-61
2024/01/20 04:50:39;;;;;;;19.73;12.20;;;4.70;55.20;;;;;;5042342;28;20188;-61
2024/01/20 04:53:05;;;;;;;20.77;13.47;;;4.70;55.10;;;;;;5050650;28;20195;-61
2024/01/20 04:55:31;;;;;;;18.40;13.03;;;4.80;55.00;;;;;;5047713;28;20463;-59
2024/01/20 04:57:56;;;;;;;19.20;13.80;;;4.80;54.70;;;;;;5042906;28;20227;-59
2024/01/20 05:00:23;;;;;;;22.37;14.23;;;4.80;54.50;;;;;;5039462;28;20311;-61
2024/01/20 05:02:48;;;;;;;18.90;13.80;;;4.80;54.60;;;;;;5038517;28;20598;-60
2024/01/20 05:05:14;;;;;;;20.00;13.43;;;4.70;54.60;;;;;;5043296;28;20511;-60
2024/01/20 05:07:39;;;;;;;19.60;12.90;;;4.70;54.70;;;;;;5043497;28;20701;-59
2024/01/20 05:10:05;;;;;;;18.43;13.07;;;4.80;54.70;;;;;;5039767;28;20548;-58
2024/01/20 05:12:31;;;;;;;22.10;14.50;;;4.70;54.80;;;;;;5044557;28;20559;-59
2024/01/20 05:14:57;;;;;;;24.03;14.97;;;4.40;55.20;;;;;;5041779;28;20204;-60
2024/01/20 05:17:22;;;;;;;20.50;13.33;;;4.50;55.40;;;;;;5036180;28;20355;-59
2024/01/20 05:19:48;;;;;;;23.63;15.00;;;4.40;55.40;;;;;;5045651;28;20521;-59
2024/01/20 05:22:14;;;;;;;23.27;14.30;;;4.40;55.50;;;;;;5042688;28;20707;-59
2024/01/20 05:24:40;;;;;;;22.37;14.70;;;4.40;55.30;;;;;;5043737;28;20218;-59
2024/01/20 05:27:05;;;;;;;20.10;14.77;;;4.20;55.10;;;;;;5044517;28;20451;-60
2024/01/20 05:29:31;;;;;;;20.07;14.40;;;4.10;55.60;;;;;;5037497;28;20189;-60
2024/01/20 05:31:56;;;;;;;18.77;12.53;;;4.00;55.80;;;;;;5043312;28;20271;-58
2024/01/20 05:34:22;;;;;;;22.60;14.20;;;4.00;56.20;;;;;;5041162;28;20198;-59
2024/01/20 05:36:48;;;;;;;23.47;15.63;;;4.00;56.10;;;;;;5041816;28;20196;-60
2024/01/20 05:39:13;;;;;;;22.03;14.00;;;4.10;55.80;;;;;;5040920;28;20204;-60
2024/01/20 05:41:39;;;;;;;21.23;14.20;;;4.20;55.80;;;;;;5043784;28;20278;-61
2024/01/20 05:44:04;;;;;;;24.57;15.17;;;4.30;55.50;;;;;;5042586;28;20314;-60
2024/01/20 05:46:30;;;;;;;21.60;14.53;;;4.20;55.50;;;;;;5039566;28;20227;-59
2024/01/20 05:48:56;;;;;;;21.80;14.50;;;4.20;55.60;;;;;;5044175;28;20188;-59
2024/01/20 05:51:21;;;;;;;22.47;14.47;;;4.10;55.70;;;;;;5044393;28;20327;-60
2024/01/20 05:53:47;;;;;;;22.83;14.53;;;4.10;55.60;;;;;;5043655;28;20188;-59
2024/01/20 05:56:12;;;;;;;22.03;14.93;;;4.20;55.60;;;;;;5045964;28;20205;-59
2024/01/20 05:58:38;;;;;;;19.67;14.40;;;4.30;55.50;;;;;;5040450;28;20331;-59
2024/01/20 06:01:04;;;;;;;19.77;14.87;;;4.30;55.50;;;;;;5045172;28;20217;-59
2024/01/20 06:03:29;;;;;;;25.37;15.93;;;4.30;55.30;;;;;;5041585;28;20192;-59
2024/01/20 06:05:55;;;;;;;25.17;16.23;;;4.20;55.20;;;;;;5041045;28;20219;-58
2024/01/20 06:08:21;;;;;;;21.43;15.40;;;4.00;55.50;;;;;;5040205;28;20443;-56
2024/01/20 06:10:46;;;;;;;24.03;15.60;;;3.80;56.20;;;;;;5040843;28;20214;-59
2024/01/20 06:13:12;;;;;;;20.27;13.97;;;4.00;56.40;;;;;;5041557;28;20173;-58
2024/01/20 06:15:37;;;;;;;24.57;15.83;;;4.00;56.20;;;;;;5035163;28;20835;-60
2024/01/20 06:18:03;;;;;;;22.43;15.50;;;4.10;56.10;;;;;;5042281;28;20191;-57
2024/01/20 06:20:29;;;;;;;23.97;13.90;;;4.30;56.10;;;;;;5039135;28;20237;-60
2024/01/20 06:22:54;;;;;;;21.30;14.30;;;4.50;58.00;;;;;;5039509;28;20236;-59
2024/01/20 06:25:20;;;;;;;24.03;14.73;;;4.50;58.80;;;;;;5045112;28;20656;-59
2024/01/20 06:27:46;;;;;;;28.23;17.23;;;4.40;57.40;;;;;;5043329;28;20200;-59
2024/01/20 06:30:12;;;;;;;27.67;16.10;;;4.10;57.40;;;;;;5044344;28;20189;-60
2024/01/20 06:32:38;;;;;;;26.70;16.40;;;4.30;56.90;;;;;;5038503;28;20308;-60
2024/01/20 06:35:04;;;;;;;25.53;15.27;;;4.10;55.60;;;;;;5039296;28;20431;-56
2024/01/20 06:37:29;;;;;;;25.40;17.17;;;3.70;55.90;;;;;;5039081;28;20467;-58
2024/01/20 06:39:55;;;;;;;25.80;16.80;;;3.30;56.50;;;;;;5043476;28;20447;-60
2024/01/20 06:42:21;;;;;;;30.20;16.80;;;3.30;57.90;;;;;;5035938;28;20224;-57
2024/01/20 06:44:47;;;;;;;24.03;15.67;;;3.20;58.10;;;;;;5046517;28;20263;-60
2024/01/20 06:47:12;;;;;;;25.03;15.70;;;2.70;58.20;;;;;;5040585;28;20958;-60
2024/01/20 06:49:39;;;;;;;23.57;14.53;;;2.30;59.20;;;;;;5037238;28;20848;-60
2024/01/20 06:52:05;;;;;;;22.57;14.43;;;2.20;59.90;;;;;;5044996;28;20548;-60
2024/01/20 06:54:31;;;;;;;24.07;15.70;;;2.40;59.70;;;;;;5039956;28;20444;-59
2024/01/20 06:56:56;;;;;;;31.60;17.27;;;2.60;59.50;;;;;;5043382;28;20453;-61
2024/01/20 06:59:22;;;;;;;26.20;16.53;;;2.20;59.80;;;;;;5039355;28;20197;-58
2024/01/20 07:01:47;;;;;;;24.00;15.13;;;2.40;59.80;;;;;;5035731;28;20589;-60
2024/01/20 07:04:13;;;;;;;25.33;15.23;;;2.40;59.40;;;;;;5047174;28;20184;-60
2024/01/20 07:06:39;;;;;;;23.27;15.80;;;2.00;60.00;;;;;;5041793;28;20235;-59
2024/01/20 07:09:05;;;;;;;21.93;15.10;;;1.60;60.80;;;;;;5046790;28;20196;-60
2024/01/20 07:11:31;;;;;;;22.50;14.80;;;1.40;62.00;;;;;;5041684;28;20591;-59
2024/01/20 07:13:57;;;;;;;24.70;15.13;;;1.50;62.30;;;;;;5044674;28;20435;-60
2024/01/20 07:16:23;;;;;;;28.07;15.00;;;1.80;62.20;;;;;;5030779;28;20463;-60
2024/01/20 07:18:49;;;;;;;25.40;15.07;;;1.90;61.00;;;;;;5039706;28;20686;-59
2024/01/20 07:21:14;;;;;;;24.23;14.67;;;1.90;60.40;;;;;;5043707;28;20516;-59
2024/01/20 07:23:40;;;;;;;24.73;13.87;;;1.70;61.10;;;;;;5042218;28;20908;-58
2024/01/20 07:26:06;;;;;;;21.67;13.60;;;2.10;61.00;;;;;;5042429;28;21200;-59
2024/01/20 07:28:31;;;;;;;22.63;13.37;;;1.90;60.60;;;;;;5041777;28;20196;-60
2024/01/20 07:30:57;;;;;;;19.30;14.53;;;1.80;60.70;;;;;;5038673;28;20192;-59
2024/01/20 07:33:23;;;;;;;29.20;16.03;;;2.00;60.80;;;;;;5039300;28;20686;-59
2024/01/20 07:35:48;;;;;;;21.37;15.33;;;2.00;60.00;;;;;;5038882;28;20762;-57
2024/01/20 07:38:14;;;;;;;21.10;13.97;;;2.00;60.30;;;;;;5047638;28;20187;-58
2024/01/20 07:40:39;;;;;;;26.10;15.37;;;2.20;60.00;;;;;;5042016;28;20561;-60
2024/01/20 07:43:05;;;;;;;24.50;15.17;;;2.40;59.40;;;;;;5039347;28;20177;-59
2024/01/20 07:45:31;;;;;;;26.17;14.67;;;2.40;59.00;;;;;;5038194;28;20211;-58
2024/01/20 07:48:00;;;;;;;26.10;16.77;;;2.30;58.60;;;;;;5036615;28;20438;-58
2024/01/20 07:50:26;;;;;;;26.80;15.13;;;2.20;59.10;;;;;;5043985;28;20177;-59
2024/01/20 07:52:51;;;;;;;20.20;14.10;;;2.00;58.80;;;;;;5044037;28;20430;-58
2024/01/20 07:55:17;;;;;;;30.60;17.53;;;2.10;59.60;;;;;;5036223;28;20224;-59
2024/01/20 07:57:43;;;;;;;24.60;15.70;;;2.50;59.10;;;;;;5043613;28;20177;-58
2024/01/20 08:00:10;;;;;;;25.37;14.57;;;2.80;59.10;;;;;;5045325;28;20184;-59
2024/01/20 08:02:37;;;;;;;26.10;15.67;;;2.80;58.10;;;;;;5041128;28;20307;-58
2024/01/20 08:05:03;;;;;;;22.77;13.73;;;2.90;57.80;;;;;;5045595;28;20840;-59
2024/01/20 08:07:28;;;;;;;22.20;15.40;;;2.90;57.40;;;;;;5041876;28;20447;-59
2024/01/20 08:09:54;;;;;;;24.07;15.70;;;2.60;57.40;;;;;;5040731;28;20427;-60
2024/01/20 08:12:20;;;;;;;24.87;16.70;;;2.50;58.20;;;;;;5045126;28;20613;-58
2024/01/20 08:14:45;;;;;;;24.83;15.50;;;2.60;58.40;;;;;;5044285;28;20180;-60
2024/01/20 08:17:11;;;;;;;25.17;15.37;;;2.70;58.70;;;;;;5034217;28;20214;-55
2024/01/20 08:19:36;;;;;;;25.37;15.97;;;2.60;58.00;;;;;;5046119;28;20193;-60
2024/01/20 08:22:02;;;;;;;27.97;15.70;;;2.80;57.90;;;;;;5046339;28;20216;-59
2024/01/20 08:24:27;;;;;;;19.77;14.37;;;3.00;57.30;;;;;;5048969;28;20644;-59
2024/01/20 08:26:53;;;;;;;26.00;15.97;;;3.10;57.00;;;;;;5044910;28;20252;-61
2024/01/20 08:29:19;;;;;;;23.40;15.77;;;3.10;56.70;;;;;;5043218;28;20282;-60
2024/01/20 08:31:45;;;;;;;24.77;15.40;;;3.10;56.70;;;;;;5047948;28;20184;-57
2024/01/20 08:34:11;;;;;;;26.47;15.37;;;3.20;56.50;;;;;;5044358;28;20534;-58
2024/01/20 08:36:37;;;;;;;27.67;15.97;;;3.10;56.40;;;;;;5039523;28;21326;-57
2024/01/20 08:39:02;;;;;;;22.20;15.27;;;3.10;56.50;;;;;;5037022;28;20184;-59
2024/01/20 08:41:28;;;;;;;21.60;14.80;;;3.30;56.50;;;;;;5039777;28;20244;-58
2024/01/20 08:43:53;;;;;;;24.43;15.07;;;3.20;56.30;;;;;;5037007;28;20674;-58
2024/01/20 08:46:19;;;;;;;21.47;15.23;;;3.20;56.40;;;;;;5042571;28;20247;-59
2024/01/20 08:48:45;;;;;;;26.10;15.53;;;3.00;56.80;;;;;;5045258;28;20276;-58
2024/01/20 08:51:10;;;;;;;20.77;14.37;;;3.00;56.70;;;;;;5041858;28;20192;-58
2024/01/20 08:53:36;;;;;;;22.47;15.67;;;3.10;57.00;;;;;;5042883;28;20665;-59
2024/01/20 08:56:03;;;;;;;24.83;16.57;;;3.00;56.50;;;;;;5047254;28;20239;-58
2024/01/20 08:58:29;;;;;;;24.57;15.17;;;3.10;56.50;;;;;;5048877;28;20192;-57
2024/01/20 09:00:55;;;;;;;26.33;16.57;;;3.20;56.40;;;;;;5041967;28;20474;-58
2024/01/20 09:03:21;;;;;;;22.70;15.30;;;3.00;56.30;;;;;;5047876;28;20259;-58
2024/01/20 09:05:46;;;;;;;27.70;15.63;;;3.10;56.70;;;;;;5048478;28;20565;-59
2024/01/20 09:08:13;;;;;;;26.20;16.50;;;3.20;56.60;;;;;;5047779;28;20188;-58
2024/01/20 09:10:39;;;;;;;28.27;15.70;;;3.50;56.50;;;;;;5047260;28;20224;-58
2024/01/20 09:13:04;;;;;;;24.60;16.57;;;3.60;56.20;;;;;;5049074;28;20415;-57
2024/01/20 09:15:31;;;;;;;23.60;15.20;;;3.50;55.70;;;;;;5047522;28;20453;-58
2024/01/20 09:17:56;;;;;;;29.23;16.60;;;2.90;55.60;;;;;;5047054;28;20200;-59
2024/01/20 09:20:22;;;;;;;32.93;16.73;;;2.80;57.30;;;;;;5040330;28;20424;-59
2024/01/20 09:22:47;;;;;;;25.90;16.77;;;3.10;57.30;;;;;;5047396;28;20176;-57
2024/01/20 09:25:13;;;;;;;25.30;15.97;;;3.20;57.10;;;;;;5045174;28;20248;-57
2024/01/20 09:27:38;;;;;;;23.07;15.30;;;3.40;57.10;;;;;;5047347;28;20183;-58
2024/01/20 09:30:07;;;;;;;30.93;15.67;;;3.50;56.30;;;;;;5043436;28;20184;-59
2024/01/20 09:32:33;;;;;;;30.73;16.57;;;3.50;56.10;;;;;;5044765;28;20181;-59
2024/01/20 09:35:05;;;;;;;23.90;15.67;;;3.50;56.00;;;;;;5048312;28;20967;-59
2024/01/20 09:37:31;;;;;;;34.43;16.80;;;3.40;55.50;;;;;;5045541;28;20443;-58
2024/01/20 09:39:57;;;;;;;28.53;18.63;;;3.40;55.70;;;;;;5044332;28;20446;-57
2024/01/20 09:42:22;;;;;;;26.13;15.70;;;3.60;55.60;;;;;;5044632;28;20688;-58
2024/01/20 09:44:50;;;;;;;27.30;17.60;;;3.20;55.20;;;;;;5047582;28;20492;-57
2024/01/20 09:47:16;;;;;;;24.00;16.50;;;3.00;56.30;;;;;;5048178;28;20773;-57
2024/01/20 09:49:42;;;;;;;29.67;16.77;;;3.10;56.50;;;;;;5039903;28;20442;-59
2024/01/20 09:52:09;;;;;;;31.33;16.70;;;2.80;56.60;;;;;;5044262;28;20196;-59
2024/01/20 09:54:57;;;;;;;27.83;17.43;;;2.80;57.40;;;;;;5039574;28;20228;-54
2024/01/20 09:57:23;;;;;;;25.07;16.40;;;2.80;57.30;;;;;;5038774;28;21036;-58
2024/01/20 09:59:51;;;;;;;26.03;17.40;;;2.90;57.20;;;;;;5042666;28;20451;-59
2024/01/20 10:02:19;;;;;;;26.40;16.10;;;2.60;57.60;;;;;;5041833;28;20511;-57
2024/01/20 10:04:48;;;;;;;29.63;17.07;;;2.50;58.40;;;;;;5037195;28;20454;-58
2024/01/20 10:07:30;;;;;;;27.87;16.20;;;2.60;58.50;;;;;;5039497;28;20467;-59
2024/01/20 10:09:56;;;;;;;29.03;16.83;;;2.80;58.00;;;;;;5042516;28;20473;-58
2024/01/20 10:12:23;;;;;;;26.90;16.63;;;3.00;57.20;;;;;;5041789;28;20427;-58
2024/01/20 10:14:52;;;;;;;25.40;15.37;;;2.80;57.10;;;;;;5040159;28;20475;-59
2024/01/20 10:17:19;;;;;;;30.03;18.33;;;3.20;57.20;;;;;;5039871;28;20496;-59
2024/01/20 10:19:44;;;;;;;34.87;18.50;;;3.40;56.90;;;;;;5040161;28;20486;-59
2024/01/20 10:22:11;;;;;;;30.50;18.50;;;3.60;56.10;;;;;;5039162;28;20521;-59
2024/01/20 10:24:50;;;;;;;25.57;16.47;;;3.80;55.60;;;;;;5040363;28;20176;-56
2024/01/20 10:27:18;;;;;;;24.23;15.73;;;3.70;55.50;;;;;;5043787;28;20458;-59
2024/01/20 10:29:45;;;;;;;22.23;15.00;;;3.80;55.60;;;;;;5042070;28;20863;-59
2024/01/20 10:32:11;;;;;;;24.70;15.90;;;3.90;55.30;;;;;;5042784;28;20458;-58
2024/01/20 10:34:36;;;;;;;27.33;15.83;;;4.10;55.00;;;;;;5040561;28;20435;-57
2024/01/20 10:37:07;;;;;;;26.30;17.20;;;4.50;54.80;;;;;;5043154;28;20218;-60
2024/01/20 10:39:40;;;;;;;24.17;16.30;;;4.80;53.60;;;;;;5042923;28;20276;-55
2024/01/20 10:42:09;;;;;;;26.20;16.20;;;4.70;53.80;;;;;;5039630;28;20574;-58
2024/01/20 10:44:38;;;;;;;23.63;16.00;;;4.70;52.90;;;;;;5041947;28;20522;-59
2024/01/20 10:47:10;;;;;;;28.90;17.07;;;5.00;53.00;;;;;;5045134;28;20815;-60
2024/01/20 10:49:39;;;;;;;23.63;16.23;;;5.40;52.30;;;;;;5046785;28;20483;-59
2024/01/20 10:52:06;;;;;;;21.73;14.90;;;5.70;51.70;;;;;;5041565;28;20439;-59
2024/01/20 10:54:32;;;;;;;22.37;16.07;;;5.80;51.50;;;;;;5046541;28;20525;-60
2024/01/20 10:56:58;;;;;;;23.07;16.43;;;6.00;51.10;;;;;;5045256;28;20526;-60
2024/01/20 10:59:26;;;;;;;24.40;15.40;;;5.90;50.50;;;;;;5043700;28;20431;-60
2024/01/20 11:01:52;;;;;;;23.10;14.90;;;6.00;50.80;;;;;;5042455;28;20833;-60
2024/01/20 11:04:19;;;;;;;22.30;16.37;;;6.10;50.90;;;;;;5042257;28;20443;-60
2024/01/20 11:06:45;;;;;;;23.70;15.87;;;6.50;50.20;;;;;;5035834;28;20204;-60
2024/01/20 11:09:20;;;;;;;23.90;16.47;;;6.60;49.20;;;;;;5046621;28;20423;-60
2024/01/20 11:12:01;;;;;;;25.30;16.10;;;6.80;49.20;;;;;;5037033;28;20442;-60
2024/01/20 11:14:32;;;;;;;20.50;15.23;;;7.00;49.10;;;;;;5043444;28;20522;-59
2024/01/20 11:17:11;;;;;;;24.23;14.77;;;7.20;48.00;;;;;;5045004;28;20463;-60
2024/01/20 11:19:38;;;;;;;22.53;14.10;;;7.50;47.60;;;;;;5042199;28;20422;-60
2024/01/20 11:22:04;;;;;;;21.63;15.83;;;7.80;46.90;;;;;;5040838;28;20507;-59
2024/01/20 11:24:41;;;;;;;23.10;15.20;;;7.50;46.90;;;;;;5046577;28;20443;-58
2024/01/20 11:27:07;;;;;;;21.83;15.40;;;7.00;47.10;;;;;;5043713;28;20457;-59
2024/01/20 11:29:32;;;;;;;23.93;15.33;;;6.60;47.90;;;;;;5047545;28;20434;-60
2024/01/20 11:31:58;;;;;;;23.50;17.10;;;6.40;49.70;;;;;;5044749;28;20446;-61
2024/01/20 11:34:24;;;;;;;24.57;17.23;;;6.70;49.00;;;;;;5044886;28;20197;-60
2024/01/20 11:36:49;;;;;;;23.37;17.10;;;7.10;49.00;;;;;;5040000;28;20216;-58
2024/01/20 11:39:17;;;;;;;27.40;18.07;;;7.40;48.10;;;;;;5043082;28;20185;-60
2024/01/20 11:41:43;;;;;;;26.93;17.43;;;7.60;48.20;;;;;;5038482;28;20259;-61
2024/01/20 11:44:08;;;;;;;24.97;18.40;;;7.70;47.50;;;;;;5044659;28;20817;-60
2024/01/20 11:46:34;;;;;;;22.87;16.90;;;7.80;47.00;;;;;;5044222;28;20200;-60
2024/01/20 11:49:01;;;;;;;26.63;18.30;;;7.90;46.50;;;;;;5048046;28;20280;-60
2024/01/20 11:51:26;;;;;;;28.13;18.50;;;7.90;46.40;;;;;;5048696;28;20242;-58
2024/01/20 11:53:52;;;;;;;25.87;16.50;;;7.80;46.80;;;;;;5044143;28;20444;-60
2024/01/20 11:56:18;;;;;;;29.17;16.83;;;7.60;46.30;;;;;;5042576;28;20204;-59
2024/01/20 11:58:44;;;;;;;25.23;18.03;;;7.40;46.90;;;;;;5047319;28;20431;-58
2024/01/20 12:01:09;;;;;;;21.17;16.30;;;7.40;47.80;;;;;;5048929;28;20315;-60
2024/01/20 12:03:35;;;;;;;24.13;15.57;;;7.10;47.60;;;;;;5048958;28;20186;-59
2024/01/20 12:06:07;;;;;;;22.93;14.50;;;7.10;47.90;;;;;;5046020;28;20212;-60
2024/01/20 12:08:36;;;;;;;22.40;15.50;;;7.10;48.30;;;;;;5045938;28;20665;-60
2024/01/20 12:11:01;;;;;;;22.67;16.30;;;7.10;48.30;;;;;;5045733;28;20454;-59
2024/01/20 12:13:32;;;;;;;26.00;17.70;;;7.40;48.20;;;;;;5048581;28;21040;-61
2024/01/20 12:15:58;;;;;;;20.33;15.60;;;7.60;48.00;;;;;;5049646;28;20231;-60
2024/01/20 12:18:24;;;;;;;23.50;16.00;;;7.80;47.30;;;;;;5044672;28;20489;-60
2024/01/20 12:20:50;;;;;;;23.53;15.60;;;7.90;47.30;;;;;;5047043;28;20490;-59
2024/01/20 12:23:22;;;;;;;21.20;15.60;;;8.00;46.90;;;;;;5051903;28;20434;-60
2024/01/20 12:25:52;;;;;;;27.10;17.43;;;8.20;46.60;;;;;;5045817;28;21000;-59
2024/01/20 12:28:18;;;;;;;20.50;16.07;;;8.10;46.10;;;;;;5044281;28;20849;-59
2024/01/20 12:30:44;;;;;;;24.33;16.07;;;7.60;47.20;;;;;;5040292;28;20482;-59
2024/01/20 12:33:10;;;;;;;21.30;16.37;;;7.70;47.50;;;;;;5044383;28;20471;-59